createdAt,value
2022-08-08T00:00:55.026Z,102343.97
2022-08-08T00:02:52.514Z,102346.34
2022-08-08T00:06:03.220Z,102347.47
2022-08-08T00:09:16.629Z,102340.44
2022-08-08T00:12:13.480Z,102336.41
2022-08-08T00:15:17.611Z,102335.84
2022-08-08T00:18:50.164Z,102335.41
2022-08-08T00:21:51.388Z,102336.25
2022-08-08T00:24:51.162Z,102345.84
2022-08-08T00:27:50.872Z,102343.41
2022-08-08T00:31:00.798Z,102345.00
2022-08-08T00:34:40.441Z,102337.09
2022-08-08T00:38:16.745Z,102346.41
2022-08-08T00:41:55.185Z,102335.09
2022-08-08T00:45:38.422Z,102329.81
2022-08-08T00:49:22.190Z,102318.81
2022-08-08T00:52:24.312Z,102327.03
2022-08-08T00:55:54.185Z,102325.19
2022-08-08T00:58:54.537Z,102329.56
2022-08-08T01:02:04.444Z,102323.91
2022-08-08T01:05:59.213Z,102336.84
2022-08-08T01:09:35.807Z,102333.19
2022-08-08T01:13:14.957Z,102345.13
2022-08-08T01:16:39.411Z,102340.94
2022-08-08T01:20:02.159Z,102336.53
2022-08-08T01:24:06.129Z,102331.63
2022-08-08T01:27:10.578Z,102319.78
2022-08-08T01:30:31.512Z,102314.53
2022-08-08T01:34:14.255Z,102326.06
2022-08-08T01:37:56.664Z,102324.88
2022-08-08T01:41:02.754Z,102342.47
2022-08-08T01:44:06.899Z,102340.78
2022-08-08T01:48:03.687Z,102344.34
2022-08-08T01:51:31.592Z,102326.53
2022-08-08T01:55:25.939Z,102332.00
2022-08-08T01:58:39.483Z,102322.03
2022-08-08T02:02:42.752Z,102314.63
2022-08-08T02:05:56.898Z,102311.84
2022-08-08T02:09:16.085Z,102332.50
2022-08-08T02:12:48.398Z,102325.13
2022-08-08T02:15:52.562Z,102318.94
2022-08-08T02:19:01.207Z,102331.97
2022-08-08T02:22:31.360Z,102335.47
2022-08-08T02:25:51.748Z,102330.47
2022-08-08T02:29:07.849Z,102332.16
2022-08-08T02:32:28.757Z,102324.09
2022-08-08T02:36:03.883Z,102324.13
2022-08-08T02:39:40.907Z,102329.88
2022-08-08T02:42:42.030Z,102320.34
2022-08-08T02:46:00.890Z,102327.16
2022-08-08T02:49:47.803Z,102339.78
2022-08-08T02:53:07.480Z,102331.38
2022-08-08T02:56:23.039Z,102331.19
2022-08-08T03:00:15.937Z,102336.19
2022-08-08T03:05:03.804Z,102335.34
2022-08-08T03:07:13.352Z,102335.22
2022-08-08T03:10:36.273Z,102340.53
2022-08-08T03:16:01.430Z,102337.59
2022-08-08T03:18:04.532Z,102337.00
2022-08-08T03:21:10.046Z,102322.69
2022-08-08T03:24:16.944Z,102317.38
2022-08-08T03:27:27.266Z,102344.75
2022-08-08T03:30:25.884Z,102338.88
2022-08-08T03:33:55.568Z,102344.22
2022-08-08T03:36:43.499Z,102346.16
2022-08-08T03:40:00.140Z,102323.47
2022-08-08T03:43:18.047Z,102307.56
2022-08-08T03:46:19.762Z,102327.31
2022-08-08T03:49:38.139Z,102321.81
2022-08-08T03:52:44.455Z,102328.47
2022-08-08T03:55:57.621Z,102322.97
2022-08-08T03:59:01.647Z,102346.97
2022-08-08T04:02:13.200Z,102341.38
2022-08-08T04:05:19.464Z,102343.91
2022-08-08T04:08:32.946Z,102349.91
2022-08-08T04:11:48.426Z,102364.63
2022-08-08T04:14:52.143Z,102367.91
2022-08-08T04:17:59.261Z,102357.31
2022-08-08T04:20:57.835Z,102358.00
2022-08-08T04:24:12.059Z,102372.66
2022-08-08T04:27:19.756Z,102371.31
2022-08-08T04:30:40.024Z,102354.66
2022-08-08T04:33:42.711Z,102358.50
2022-08-08T04:36:41.613Z,102356.94
2022-08-08T04:40:03.666Z,102372.66
2022-08-08T04:43:00.765Z,102354.19
2022-08-08T04:46:02.885Z,102370.66
2022-08-08T04:49:00.860Z,102367.00
2022-08-08T04:51:58.815Z,102374.63
2022-08-08T04:54:57.018Z,102368.75
2022-08-08T04:57:55.021Z,102361.38
2022-08-08T05:00:57.047Z,102358.94
2022-08-08T05:04:11.403Z,102362.44
2022-08-08T05:07:14.927Z,102365.06
2022-08-08T05:10:13.230Z,102375.50
2022-08-08T05:13:17.481Z,102379.47
2022-08-08T05:16:54.854Z,102388.91
2022-08-08T05:20:11.575Z,102375.19
2022-08-08T05:22:59.123Z,102377.19
2022-08-08T05:26:01.767Z,102385.50
2022-08-08T05:29:04.740Z,102388.56
2022-08-08T05:32:08.117Z,102388.19
2022-08-08T05:35:06.357Z,102390.78
2022-08-08T05:38:30.719Z,102386.09
2022-08-08T05:41:27.825Z,102394.97
2022-08-08T05:44:31.125Z,102391.34
2022-08-08T05:47:30.013Z,102393.94
2022-08-08T05:50:48.112Z,102384.31
2022-08-08T05:54:27.179Z,102388.91
2022-08-08T05:57:57.714Z,102400.47
2022-08-08T06:00:35.646Z,102403.81
2022-08-08T06:03:34.436Z,102405.03
2022-08-08T06:06:32.451Z,102406.31
2022-08-08T06:09:58.256Z,102418.00
2022-08-08T06:12:50.758Z,102415.59
2022-08-08T06:15:50.907Z,102412.00
2022-08-08T06:19:16.479Z,102413.13
2022-08-08T06:26:36.176Z,102412.47
2022-08-08T06:29:26.903Z,102420.31
2022-08-08T06:32:28.511Z,102421.41
2022-08-08T06:36:06.512Z,102426.09
2022-08-08T06:38:44.910Z,102420.47
2022-08-08T06:42:02.672Z,102424.22
2022-08-08T06:45:11.031Z,102427.38
2022-08-08T06:48:11.247Z,102428.00
2022-08-08T06:51:11.218Z,102429.66
2022-08-08T06:54:09.526Z,102425.91
2022-08-08T06:57:07.041Z,102418.50
2022-08-08T07:00:12.473Z,102429.22
2022-08-08T07:03:51.513Z,102437.22
2022-08-08T07:06:33.422Z,102431.75
2022-08-08T07:09:45.564Z,102439.75
2022-08-08T07:13:01.289Z,102437.75
2022-08-08T07:16:28.967Z,102446.06
2022-08-08T07:19:41.900Z,102452.09
2022-08-08T07:23:02.393Z,102455.03
2022-08-08T07:26:03.236Z,102443.13
2022-08-08T07:29:05.755Z,102455.75
2022-08-08T07:32:06.433Z,102451.28
2022-08-08T07:35:06.116Z,102449.25
2022-08-08T07:38:20.614Z,102456.16
2022-08-08T07:41:58.774Z,102458.94
2022-08-08T07:44:49.774Z,102448.88
2022-08-08T07:47:51.635Z,102459.09
2022-08-08T07:50:50.219Z,102456.63
2022-08-08T07:54:01.287Z,102455.28
2022-08-08T07:57:01.903Z,102461.53
2022-08-08T08:00:13.200Z,102467.03
2022-08-08T08:03:43.250Z,102457.03
2022-08-08T08:06:43.299Z,102462.94
2022-08-08T08:09:42.452Z,102462.94
2022-08-08T08:12:43.510Z,102466.41
2022-08-08T08:15:44.205Z,102464.91
2022-08-08T08:18:55.635Z,102475.84
2022-08-08T08:21:58.265Z,102459.41
2022-08-08T08:25:07.950Z,102466.97
2022-08-08T08:28:09.295Z,102470.03
2022-08-08T08:31:08.076Z,102455.56
2022-08-08T08:34:08.335Z,102458.09
2022-08-08T08:37:08.755Z,102467.25
2022-08-08T08:40:10.818Z,102460.50
2022-08-08T08:43:15.399Z,102465.72
2022-08-08T08:46:19.006Z,102470.84
2022-08-08T08:49:17.366Z,102465.25
2022-08-08T08:52:17.638Z,102461.84
2022-08-08T08:55:20.235Z,102462.22
2022-08-08T08:58:39.812Z,102479.94
2022-08-08T09:01:43.823Z,102471.44
2022-08-08T09:04:56.089Z,102484.03
2022-08-08T09:08:12.304Z,102482.97
2022-08-08T09:11:11.111Z,102479.22
2022-08-08T09:14:08.278Z,102475.16
2022-08-08T09:17:12.930Z,102470.63
2022-08-08T09:21:56.668Z,102480.34
2022-08-08T09:23:33.625Z,102470.59
2022-08-08T09:26:47.190Z,102461.28
2022-08-08T09:30:02.345Z,102455.84
2022-08-08T09:33:55.644Z,102463.97
2022-08-08T09:36:22.682Z,102457.34
2022-08-08T09:39:22.153Z,102457.13
2022-08-08T09:42:23.405Z,102456.09
2022-08-08T09:46:00.960Z,102452.81
2022-08-08T09:48:52.271Z,102454.06
2022-08-08T09:52:06.298Z,102456.47
2022-08-08T09:55:05.529Z,102449.03
2022-08-08T09:58:07.328Z,102455.63
2022-08-08T10:01:14.361Z,102454.34
2022-08-08T10:04:15.118Z,102462.97
2022-08-08T10:07:36.033Z,102461.91
2022-08-08T10:10:50.920Z,102460.34
2022-08-08T10:13:57.270Z,102456.50
2022-08-08T10:16:55.877Z,102469.94
2022-08-08T10:20:00.657Z,102463.19
2022-08-08T10:23:01.530Z,102460.75
2022-08-08T10:25:59.092Z,102466.25
2022-08-08T10:29:06.526Z,102475.44
2022-08-08T10:32:21.911Z,102459.41
2022-08-08T10:36:08.944Z,102466.72
2022-08-08T10:38:41.275Z,102454.28
2022-08-08T10:41:59.035Z,102450.44
2022-08-08T10:45:02.915Z,102448.53
2022-08-08T10:48:10.590Z,102461.38
2022-08-08T10:51:14.537Z,102449.84
2022-08-08T10:54:20.400Z,102450.38
2022-08-08T10:57:17.322Z,102450.66
2022-08-08T11:00:48.380Z,102450.75
2022-08-08T11:04:00.370Z,102449.34
2022-08-08T11:07:00.612Z,102445.13
2022-08-08T11:10:19.891Z,102443.53
2022-08-08T11:13:29.763Z,102438.09
2022-08-08T11:16:32.571Z,102445.25
2022-08-08T11:19:30.292Z,102440.03
2022-08-08T11:22:32.402Z,102452.44
2022-08-08T11:25:52.237Z,102451.66
2022-08-08T11:28:50.302Z,102447.59
2022-08-08T11:31:50.448Z,102459.13
2022-08-08T11:38:36.587Z,102461.25
2022-08-08T11:41:21.213Z,102455.91
2022-08-08T11:44:28.991Z,102447.53
2022-08-08T11:47:39.175Z,102458.66
2022-08-08T11:50:36.972Z,102462.44
2022-08-08T11:53:42.643Z,102465.03
2022-08-08T11:56:56.632Z,102460.22
2022-08-08T12:00:02.561Z,102458.66
2022-08-08T12:03:36.446Z,102455.81
2022-08-08T12:06:33.637Z,102450.41
2022-08-08T12:09:59.684Z,102451.34
2022-08-08T12:12:52.146Z,102456.72
2022-08-08T12:15:53.734Z,102454.72
2022-08-08T12:18:53.624Z,102439.41
2022-08-08T12:21:59.780Z,102436.03
2022-08-08T12:25:05.434Z,102434.38
2022-08-08T12:28:22.444Z,102438.09
2022-08-08T12:31:30.381Z,102441.44
2022-08-08T12:34:39.988Z,102443.06
2022-08-08T12:37:39.976Z,102435.28
2022-08-08T12:40:56.278Z,102453.53
2022-08-08T12:44:00.609Z,102437.44
2022-08-08T12:47:00.204Z,102436.19
2022-08-08T12:50:00.427Z,102435.75
2022-08-08T12:52:57.504Z,102442.38
2022-08-08T12:56:17.678Z,102444.44
2022-08-08T12:59:18.296Z,102436.59
2022-08-08T13:02:31.745Z,102435.75
2022-08-08T13:06:04.245Z,102432.06
2022-08-08T13:08:53.690Z,102438.25
2022-08-08T13:12:27.051Z,102433.28
2022-08-08T13:15:12.400Z,102434.88
2022-08-08T13:18:13.607Z,102428.31
2022-08-08T13:21:14.299Z,102426.25
2022-08-08T13:24:19.008Z,102423.00
2022-08-08T13:27:35.407Z,102420.09
2022-08-08T13:30:33.595Z,102431.22
2022-08-08T13:33:41.885Z,102434.94
2022-08-08T13:36:40.860Z,102445.69
2022-08-08T13:39:41.721Z,102440.69
2022-08-08T13:42:39.199Z,102430.84
2022-08-08T13:45:37.019Z,102444.44
2022-08-08T13:48:34.076Z,102425.47
2022-08-08T13:51:37.604Z,102428.75
2022-08-08T13:54:40.785Z,102421.75
2022-08-08T13:57:46.262Z,102435.78
2022-08-08T14:00:59.288Z,102431.63
2022-08-08T14:04:00.375Z,102420.50
2022-08-08T14:07:02.136Z,102408.97
2022-08-08T14:10:11.897Z,102416.78
2022-08-08T14:13:30.494Z,102426.28
2022-08-08T14:16:30.450Z,102434.13
2022-08-08T14:19:55.665Z,102429.19
2022-08-08T14:22:56.047Z,102420.91
2022-08-08T14:26:00.675Z,102434.94
2022-08-08T14:29:27.035Z,102437.44
2022-08-08T14:32:30.058Z,102432.06
2022-08-08T14:35:35.190Z,102434.53
2022-08-08T14:38:52.055Z,102435.78
2022-08-08T14:41:54.456Z,102424.66
2022-08-08T14:45:00.602Z,102438.22
2022-08-08T14:48:02.828Z,102430.81
2022-08-08T14:51:07.511Z,102436.94
2022-08-08T14:54:04.426Z,102442.66
2022-08-08T14:57:03.993Z,102439.00
2022-08-08T15:00:02.932Z,102435.72
2022-08-08T15:03:14.041Z,102430.38
2022-08-08T15:06:12.141Z,102417.19
2022-08-08T15:09:13.990Z,102416.38
2022-08-08T15:12:11.416Z,102425.47
2022-08-08T15:15:09.667Z,102420.50
2022-08-08T15:18:08.239Z,102430.00
2022-08-08T15:21:08.565Z,102425.00
2022-08-08T15:24:06.367Z,102413.50
2022-08-08T15:27:57.819Z,102417.63
2022-08-08T15:30:26.849Z,102411.00
2022-08-08T15:33:35.714Z,102428.75
2022-08-08T15:36:42.515Z,102431.25
2022-08-08T15:39:40.639Z,102431.66
2022-08-08T15:42:37.610Z,102431.22
2022-08-08T15:45:36.756Z,102439.09
2022-08-08T15:48:36.581Z,102427.53
2022-08-08T15:51:34.385Z,102439.00
2022-08-08T15:54:39.028Z,102422.16
2022-08-08T15:57:39.779Z,102432.03
2022-08-08T16:00:37.659Z,102431.16
2022-08-08T16:03:46.003Z,102431.97
2022-08-08T16:06:50.556Z,102424.50
2022-08-08T16:13:09.019Z,102426.63
2022-08-08T16:13:35.016Z,102420.84
2022-08-08T16:16:22.142Z,102431.16
2022-08-08T16:19:19.807Z,102426.25
2022-08-08T16:22:38.874Z,102423.34
2022-08-08T16:25:46.171Z,102422.59
2022-08-08T16:28:51.531Z,102421.75
2022-08-08T16:31:50.025Z,102416.38
2022-08-08T16:34:47.723Z,102420.94
2022-08-08T16:37:47.428Z,102420.50
2022-08-08T16:40:44.359Z,102431.66
2022-08-08T16:43:49.038Z,102428.34
2022-08-08T16:46:48.909Z,102429.59
2022-08-08T16:50:01.389Z,102423.31
2022-08-08T16:55:04.081Z,102424.91
2022-08-08T16:56:18.713Z,102426.47
2022-08-08T16:59:21.488Z,102432.66
2022-08-08T17:02:37.983Z,102437.59
2022-08-08T17:05:45.023Z,102441.41
2022-08-08T17:08:42.662Z,102438.53
2022-08-08T17:11:48.818Z,102440.59
2022-08-08T17:14:48.729Z,102440.16
2022-08-08T17:18:02.750Z,102441.72
2022-08-08T17:21:01.836Z,102441.31
2022-08-08T17:24:02.670Z,102439.66
2022-08-08T17:27:01.456Z,102437.97
2022-08-08T17:29:58.917Z,102443.75
2022-08-08T17:34:36.901Z,102444.59
2022-08-08T17:36:22.779Z,102447.03
2022-08-08T17:39:45.828Z,102447.94
2022-08-08T17:42:47.227Z,102452.97
2022-08-08T17:45:47.429Z,102452.47
2022-08-08T17:48:47.857Z,102459.09
2022-08-08T17:51:51.666Z,102468.25
2022-08-08T17:54:55.905Z,102456.69
2022-08-08T17:57:53.747Z,102457.94
2022-08-08T18:00:56.157Z,102455.81
2022-08-08T18:03:54.680Z,102454.06
2022-08-08T18:06:57.001Z,102464.34
2022-08-08T18:09:54.519Z,102478.00
2022-08-08T18:12:51.380Z,102466.84
2022-08-08T18:15:48.814Z,102465.94
2022-08-08T18:18:58.406Z,102472.84
2022-08-08T18:22:02.419Z,102483.25
2022-08-08T18:25:03.093Z,102481.44
2022-08-08T18:28:00.663Z,102482.69
2022-08-08T18:30:58.537Z,102480.97
2022-08-08T18:34:25.085Z,102481.63
2022-08-08T18:37:33.623Z,102476.91
2022-08-08T18:40:35.189Z,102487.72
2022-08-08T18:43:42.777Z,102489.63
2022-08-08T18:46:55.326Z,102496.88
2022-08-08T18:49:58.983Z,102502.22
2022-08-08T18:52:57.876Z,102503.84
2022-08-08T18:55:54.890Z,102516.19
2022-08-08T18:58:53.676Z,102509.09
2022-08-08T19:02:28.782Z,102521.44
2022-08-08T19:05:08.225Z,102521.03
2022-08-08T19:08:10.176Z,102533.84
2022-08-08T19:11:22.552Z,102521.94
2022-08-08T19:14:20.334Z,102531.94
2022-08-08T19:17:28.685Z,102528.88
2022-08-08T19:20:26.968Z,102526.72
2022-08-08T19:23:23.416Z,102529.56
2022-08-08T19:26:30.550Z,102529.56
2022-08-08T19:29:28.623Z,102540.09
2022-08-08T19:32:25.861Z,102556.25
2022-08-08T19:35:45.329Z,102548.88
2022-08-08T19:38:43.783Z,102567.56
2022-08-08T19:41:40.750Z,102565.56
2022-08-08T19:44:45.482Z,102564.13
2022-08-08T19:47:49.384Z,102564.16
2022-08-08T19:50:47.648Z,102565.69
2022-08-08T19:53:50.983Z,102572.38
2022-08-08T19:56:50.793Z,102574.97
2022-08-08T19:59:47.964Z,102576.19
2022-08-08T20:02:50.597Z,102582.19
2022-08-08T20:06:15.311Z,102578.53
2022-08-08T20:09:09.081Z,102583.53
2022-08-08T20:12:09.348Z,102590.41
2022-08-08T20:15:10.389Z,102591.63
2022-08-08T20:18:15.493Z,102588.44
2022-08-08T20:21:14.430Z,102599.44
2022-08-08T20:24:12.009Z,102590.16
2022-08-08T20:27:10.044Z,102594.78
2022-08-08T20:30:52.422Z,102594.41
2022-08-08T20:34:28.890Z,102598.50
2022-08-08T20:36:52.643Z,102601.34
2022-08-08T20:39:51.729Z,102595.94
2022-08-08T20:42:54.698Z,102598.78
2022-08-08T20:45:57.591Z,102606.09
2022-08-08T20:49:00.950Z,102604.44
2022-08-08T20:51:59.903Z,102601.13
2022-08-08T20:54:58.203Z,102601.56
2022-08-08T20:57:57.989Z,102602.63
2022-08-08T21:00:54.846Z,102608.44
2022-08-08T21:04:00.129Z,102611.44
2022-08-08T21:06:59.360Z,102613.84
2022-08-08T21:10:07.659Z,102616.16
2022-08-08T21:13:10.599Z,102607.28
2022-08-08T21:16:18.164Z,102617.28
2022-08-08T21:19:24.057Z,102612.31
2022-08-08T21:22:31.983Z,102617.84
2022-08-08T21:25:29.076Z,102616.91
2022-08-08T21:28:35.501Z,102614.81
2022-08-08T21:31:53.446Z,102619.59
2022-08-08T21:34:50.642Z,102617.47
2022-08-08T21:37:54.955Z,102608.44
2022-08-08T21:40:55.925Z,102614.31
2022-08-08T21:43:53.963Z,102611.09
2022-08-08T21:48:07.509Z,102604.63
2022-08-08T21:50:11.785Z,102591.06
2022-08-08T21:54:35.308Z,102607.09
2022-08-08T21:56:31.359Z,102600.31
2022-08-08T22:00:01.880Z,102610.00
2022-08-08T22:02:53.888Z,102604.22
2022-08-08T22:05:51.918Z,102609.91
2022-08-08T22:08:59.158Z,102627.69
2022-08-08T22:12:08.846Z,102631.97
2022-08-08T22:15:07.687Z,102621.88
2022-08-08T22:18:05.008Z,102623.00
2022-08-08T22:21:15.773Z,102615.75
2022-08-08T22:24:13.677Z,102626.75
2022-08-08T22:27:11.168Z,102629.84
2022-08-08T22:30:13.839Z,102616.06
2022-08-08T22:34:11.240Z,102619.09
2022-08-08T22:36:34.377Z,102633.56
2022-08-08T22:39:45.861Z,102627.59
2022-08-08T22:42:49.898Z,102629.19
2022-08-08T22:45:52.904Z,102633.63
2022-08-08T22:48:54.566Z,102634.91
2022-08-08T22:51:52.132Z,102635.47
2022-08-08T22:55:04.429Z,102631.31
2022-08-08T22:58:03.520Z,102627.41
2022-08-08T23:01:02.262Z,102632.00
2022-08-08T23:04:32.517Z,102629.00
2022-08-08T23:07:49.303Z,102630.13
2022-08-08T23:10:52.736Z,102634.06
2022-08-08T23:13:53.565Z,102630.53
2022-08-08T23:16:59.538Z,102629.97
2022-08-08T23:19:56.868Z,102635.06
2022-08-08T23:22:55.044Z,102631.28
2022-08-08T23:25:52.076Z,102628.16
2022-08-08T23:28:48.896Z,102643.84
2022-08-08T23:31:45.841Z,102644.78
2022-08-08T23:36:06.978Z,102658.50
2022-08-08T23:39:07.340Z,102658.94
2022-08-08T23:42:06.703Z,102648.28
2022-08-08T23:45:06.408Z,102651.28
2022-08-08T23:49:06.560Z,102650.72
2022-08-08T23:51:42.110Z,102647.53
2022-08-08T23:55:00.296Z,102641.16
2022-08-08T23:58:01.854Z,102645.16
